createdAt,value
2022-11-06T00:03:38.373Z,8.08
2022-11-06T00:08:42.527Z,8.05
2022-11-06T00:13:46.733Z,8.07
2022-11-06T00:18:50.871Z,8.03
2022-11-06T00:23:55.025Z,8.06
2022-11-06T00:28:59.190Z,8.06
2022-11-06T00:34:03.363Z,8.05
2022-11-06T00:39:07.527Z,8.03
2022-11-06T00:44:11.669Z,8.01
2022-11-06T00:49:15.845Z,7.99
2022-11-06T00:54:19.983Z,7.98
2022-11-06T00:59:24.167Z,7.94
2022-11-06T01:04:28.335Z,7.84
2022-11-06T01:09:32.507Z,7.79
2022-11-06T01:14:36.681Z,7.79
2022-11-06T01:19:40.848Z,7.77
2022-11-06T01:24:45.037Z,7.68
2022-11-06T01:29:49.169Z,7.66
2022-11-06T01:34:53.282Z,7.71
2022-11-06T01:39:57.482Z,7.71
2022-11-06T01:45:01.614Z,7.74
2022-11-06T01:50:05.760Z,7.72
2022-11-06T01:55:09.961Z,7.70
2022-11-06T02:00:14.112Z,7.72
2022-11-06T02:05:18.276Z,7.71
2022-11-06T02:10:22.516Z,7.69
2022-11-06T02:15:26.579Z,7.71
2022-11-06T02:20:28.859Z,7.71
2022-11-06T02:25:33.050Z,7.70
2022-11-06T02:30:37.199Z,7.73
2022-11-06T02:35:41.339Z,7.72
2022-11-06T02:40:45.502Z,7.69
2022-11-06T02:45:49.692Z,7.65
2022-11-06T02:50:53.871Z,7.66
2022-11-06T02:55:58.008Z,7.67
2022-11-06T03:01:02.176Z,7.74
2022-11-06T03:06:06.323Z,7.70
2022-11-06T03:11:10.528Z,7.70
2022-11-06T03:16:14.680Z,7.69
2022-11-06T03:21:18.833Z,7.68
2022-11-06T03:26:23.003Z,7.67
2022-11-06T03:31:27.171Z,7.68
2022-11-06T03:36:31.329Z,7.73
2022-11-06T03:41:35.459Z,7.71
2022-11-06T03:46:39.648Z,7.76
2022-11-06T03:51:43.786Z,7.82
2022-11-06T03:56:47.949Z,7.81
2022-11-06T04:01:52.248Z,7.78
2022-11-06T04:06:56.268Z,7.77
2022-11-06T04:12:00.460Z,7.80
2022-11-06T04:17:04.606Z,7.76
2022-11-06T04:22:08.736Z,7.78
2022-11-06T04:27:12.924Z,7.75
2022-11-06T04:32:17.104Z,7.78
2022-11-06T04:37:21.249Z,7.77
2022-11-06T04:42:25.444Z,7.73
2022-11-06T04:47:29.604Z,7.76
2022-11-06T04:52:33.762Z,7.71
2022-11-06T04:57:37.888Z,7.68
2022-11-06T05:02:42.051Z,7.61
2022-11-06T05:07:46.247Z,7.58
2022-11-06T05:12:50.401Z,7.53
2022-11-06T05:17:54.547Z,7.51
2022-11-06T05:22:58.706Z,7.49
2022-11-06T05:28:02.855Z,7.53
2022-11-06T05:33:07.034Z,7.48
2022-11-06T05:38:11.559Z,7.44
2022-11-06T05:43:15.369Z,7.45
2022-11-06T05:48:19.532Z,7.42
2022-11-06T05:53:23.704Z,7.39
2022-11-06T05:58:27.831Z,7.40
2022-11-06T06:03:31.999Z,7.33
2022-11-06T06:08:36.174Z,7.36
2022-11-06T06:13:40.337Z,7.36
2022-11-06T06:18:44.520Z,7.34
2022-11-06T06:23:48.844Z,7.35
2022-11-06T06:28:52.829Z,7.39
2022-11-06T06:33:57.003Z,7.34
2022-11-06T06:39:01.163Z,7.32
2022-11-06T06:44:05.302Z,7.42
2022-11-06T06:49:09.475Z,7.44
2022-11-06T06:54:13.656Z,7.46
2022-11-06T06:59:17.809Z,7.50
2022-11-06T07:04:21.979Z,7.54
2022-11-06T07:09:26.108Z,7.59
2022-11-06T07:14:30.308Z,7.57
2022-11-06T07:19:34.445Z,7.64
2022-11-06T07:24:38.608Z,7.64
2022-11-06T07:29:42.786Z,7.67
2022-11-06T07:34:46.924Z,7.79
2022-11-06T07:39:51.144Z,7.93
2022-11-06T07:44:55.253Z,7.98
2022-11-06T07:49:57.522Z,7.97
2022-11-06T07:55:01.678Z,8.08
2022-11-06T08:00:05.847Z,8.12
2022-11-06T08:05:10.045Z,8.13
2022-11-06T08:10:14.170Z,8.19
2022-11-06T08:15:18.362Z,8.29
2022-11-06T08:20:20.628Z,8.37
2022-11-06T08:25:24.752Z,8.43
2022-11-06T08:30:28.969Z,8.49
2022-11-06T08:35:33.067Z,8.59
2022-11-06T08:40:37.260Z,8.68
2022-11-06T08:45:41.428Z,8.72
2022-11-06T08:50:45.591Z,8.80
2022-11-06T08:55:49.744Z,8.91
2022-11-06T09:00:53.964Z,9.04
2022-11-06T09:05:58.055Z,9.21
2022-11-06T09:11:02.209Z,9.40
2022-11-06T09:21:10.565Z,9.89
2022-11-06T09:26:14.715Z,10.06
2022-11-06T09:31:18.916Z,10.20
2022-11-06T09:36:23.040Z,10.26
2022-11-06T09:41:27.261Z,10.40
2022-11-06T09:46:31.348Z,10.54
2022-11-06T09:51:35.520Z,10.64
2022-11-06T09:56:39.672Z,10.83
2022-11-06T10:06:48.285Z,10.93
2022-11-06T10:11:52.162Z,10.89
2022-11-06T10:16:56.375Z,10.90
2022-11-06T10:22:00.509Z,10.98
2022-11-06T10:27:04.638Z,10.98
2022-11-06T10:32:08.794Z,11.14
2022-11-06T10:37:12.960Z,11.26
2022-11-06T10:42:17.172Z,11.44
2022-11-06T10:47:21.497Z,11.59
2022-11-06T10:52:25.468Z,11.56
2022-11-06T10:57:29.669Z,11.56
2022-11-06T11:02:33.894Z,11.55
2022-11-06T11:07:37.925Z,11.61
2022-11-06T11:12:42.118Z,11.67
2022-11-06T11:17:46.244Z,11.63
2022-11-06T11:22:50.490Z,11.61
2022-11-06T11:27:54.598Z,11.36
2022-11-06T11:32:58.742Z,11.26
2022-11-06T11:38:02.946Z,11.28
2022-11-06T11:43:07.051Z,11.31
2022-11-06T11:48:11.479Z,11.36
2022-11-06T11:53:15.379Z,11.37
2022-11-06T11:58:19.580Z,11.36
2022-11-06T12:03:23.771Z,11.30
2022-11-06T12:08:27.869Z,11.36
2022-11-06T12:13:32.040Z,11.40
2022-11-06T12:18:36.192Z,11.36
2022-11-06T12:23:40.383Z,11.45
2022-11-06T12:28:44.503Z,11.40
2022-11-06T12:34:05.654Z,11.31
2022-11-06T12:38:52.931Z,11.23
2022-11-06T12:43:56.994Z,11.11
2022-11-06T12:49:01.151Z,11.10
2022-11-06T12:54:05.347Z,11.15
2022-11-06T12:59:09.457Z,11.18
2022-11-06T13:04:13.645Z,11.20
2022-11-06T13:09:17.784Z,11.20
2022-11-06T13:14:21.971Z,11.24
2022-11-06T13:19:26.155Z,11.29
2022-11-06T13:24:30.301Z,11.26
2022-11-06T13:29:34.622Z,11.32
2022-11-06T13:34:38.613Z,11.44
2022-11-06T13:39:42.805Z,11.45
2022-11-06T13:44:46.897Z,11.45
2022-11-06T13:49:49.208Z,11.38
2022-11-06T13:54:53.370Z,11.32
2022-11-06T13:59:57.503Z,11.25
2022-11-06T14:05:01.723Z,11.26
2022-11-06T14:10:05.864Z,11.22
2022-11-06T14:15:10.001Z,11.20
2022-11-06T14:20:14.164Z,11.23
2022-11-06T14:25:18.308Z,11.26
2022-11-06T14:30:22.492Z,11.28
2022-11-06T14:35:26.655Z,11.28
2022-11-06T14:40:30.833Z,11.23
2022-11-06T14:45:34.939Z,11.17
2022-11-06T14:50:39.158Z,11.09
2022-11-06T14:55:43.406Z,11.06
2022-11-06T15:00:47.456Z,11.03
2022-11-06T15:05:52.862Z,10.93
2022-11-06T15:10:55.793Z,10.86
2022-11-06T15:15:59.902Z,10.79
2022-11-06T15:21:04.122Z,10.70
2022-11-06T15:26:08.272Z,10.67
2022-11-06T15:36:16.576Z,10.62
2022-11-06T15:41:20.728Z,10.53
2022-11-06T15:46:24.875Z,10.52
2022-11-06T15:51:29.039Z,10.51
2022-11-06T15:56:33.205Z,10.55
2022-11-06T16:01:37.545Z,10.49
2022-11-06T16:06:41.554Z,10.29
2022-11-06T16:11:45.701Z,10.09
2022-11-06T16:16:49.858Z,9.89
2022-11-06T16:21:54.019Z,9.72
2022-11-06T16:26:58.209Z,9.56
2022-11-06T16:32:02.363Z,9.39
2022-11-06T16:37:06.504Z,9.27
2022-11-06T16:42:10.677Z,8.99
2022-11-06T16:47:14.855Z,8.82
2022-11-06T16:52:18.981Z,8.74
2022-11-06T16:57:23.175Z,8.65
2022-11-06T17:02:27.467Z,8.63
2022-11-06T17:07:31.459Z,8.63
2022-11-06T17:12:35.649Z,8.60
2022-11-06T17:17:40.058Z,8.61
2022-11-06T17:22:43.946Z,8.54
2022-11-06T17:27:48.247Z,8.57
2022-11-06T17:37:56.416Z,8.59
2022-11-06T17:43:00.749Z,8.62
2022-11-06T17:48:04.746Z,8.69
2022-11-06T17:53:08.915Z,8.74
2022-11-06T17:58:13.360Z,8.84
2022-11-06T18:03:17.412Z,8.82
2022-11-06T18:08:21.428Z,8.74
2022-11-06T18:13:25.588Z,8.71
2022-11-06T18:18:29.736Z,8.66
2022-11-06T18:23:33.910Z,8.73
2022-11-06T18:28:38.087Z,8.70
2022-11-06T18:33:42.219Z,8.64
2022-11-06T18:38:46.449Z,8.67
2022-11-06T18:43:50.595Z,8.76
2022-11-06T18:48:54.708Z,8.89
2022-11-06T18:53:58.926Z,8.99
2022-11-06T18:59:03.061Z,9.05
2022-11-06T19:04:07.171Z,9.14
2022-11-06T19:09:11.354Z,9.20
2022-11-06T19:14:15.515Z,9.15
2022-11-06T19:19:25.165Z,9.04
2022-11-06T19:24:21.950Z,9.14
2022-11-06T19:29:26.126Z,9.20
2022-11-06T19:34:34.081Z,9.29
2022-11-06T19:39:34.453Z,9.33
2022-11-06T19:49:42.771Z,9.42
2022-11-06T19:54:46.907Z,9.47
2022-11-06T19:59:51.166Z,9.63
2022-11-06T20:04:55.253Z,9.57
2022-11-06T20:09:59.393Z,9.50
2022-11-06T20:15:03.642Z,9.52
2022-11-06T20:20:07.727Z,9.54
2022-11-06T20:25:11.891Z,9.60
2022-11-06T20:30:16.049Z,9.64
2022-11-06T20:35:20.209Z,9.67
2022-11-06T20:40:24.374Z,9.68
2022-11-06T20:45:28.555Z,9.74
2022-11-06T20:50:32.689Z,9.73
2022-11-06T20:55:36.878Z,9.78
2022-11-06T21:00:41.011Z,9.87
2022-11-06T21:05:45.207Z,9.85
2022-11-06T21:10:49.316Z,9.86
2022-11-06T21:15:53.490Z,9.89
2022-11-06T21:20:57.670Z,9.89
2022-11-06T21:26:01.803Z,9.92
2022-11-06T21:31:05.980Z,9.88
2022-11-06T21:36:10.215Z,9.89
2022-11-06T21:41:14.330Z,9.90
2022-11-06T21:46:18.443Z,9.92
2022-11-06T21:51:22.626Z,9.92
2022-11-06T21:56:26.803Z,9.91
2022-11-06T22:01:31.175Z,9.92
2022-11-06T22:06:35.111Z,9.98
2022-11-06T22:11:39.260Z,9.95
2022-11-06T22:16:43.494Z,9.91
2022-11-06T22:21:47.608Z,9.91
2022-11-06T22:26:51.783Z,9.92
2022-11-06T22:31:55.921Z,9.98
2022-11-06T22:37:00.057Z,10.01
2022-11-06T22:42:04.259Z,10.02
2022-11-06T22:47:08.393Z,10.07
2022-11-06T22:52:12.567Z,10.09
2022-11-06T22:57:16.704Z,10.08
2022-11-06T23:07:25.033Z,10.14
2022-11-06T23:12:29.218Z,10.16
2022-11-06T23:17:33.359Z,10.17
2022-11-06T23:22:37.508Z,10.22
2022-11-06T23:27:47.027Z,10.31
2022-11-06T23:32:45.883Z,10.37
2022-11-06T23:37:50.009Z,10.46
2022-11-06T23:42:54.187Z,10.51
2022-11-06T23:47:58.331Z,10.55
2022-11-06T23:53:02.463Z,10.65
2022-11-06T23:58:06.659Z,10.66
